createdAt,value
2018-06-19T00:00:40.887Z,19.77
2018-06-19T00:03:09.398Z,17.63
2018-06-19T00:05:37.966Z,16.23
2018-06-19T00:08:06.430Z,15.00
2018-06-19T00:10:35.007Z,17.77
2018-06-19T00:13:04.261Z,16.23
2018-06-19T00:15:32.729Z,17.20
2018-06-19T00:18:21.842Z,17.53
2018-06-19T00:20:51.263Z,17.10
2018-06-19T00:23:19.751Z,17.03
2018-06-19T00:25:48.223Z,18.27
2018-06-19T00:28:16.732Z,17.00
2018-06-19T00:30:45.157Z,15.37
2018-06-19T00:33:13.641Z,16.50
2018-06-19T00:35:42.136Z,16.33
2018-06-19T00:38:10.652Z,21.70
2018-06-19T00:40:39.096Z,12.83
2018-06-19T00:43:07.610Z,14.97
2018-06-19T00:45:36.086Z,11.43
2018-06-19T00:48:04.683Z,12.10
2018-06-19T00:50:33.216Z,10.30
2018-06-19T00:53:01.806Z,13.57
2018-06-19T00:55:30.282Z,12.53
2018-06-19T00:57:58.901Z,9.90
2018-06-19T01:00:27.442Z,10.83
2018-06-19T01:02:55.982Z,8.83
2018-06-19T01:05:24.485Z,8.97
2018-06-19T01:07:53.524Z,8.40
2018-06-19T01:10:21.991Z,8.83
2018-06-19T01:12:51.236Z,7.77
2018-06-19T01:15:19.710Z,9.10
2018-06-19T01:17:48.281Z,7.40
2018-06-19T01:20:16.796Z,7.20
2018-06-19T01:22:45.379Z,7.53
2018-06-19T01:25:13.841Z,6.47
2018-06-19T01:27:42.330Z,9.70
2018-06-19T01:30:10.802Z,6.73
2018-06-19T01:32:39.299Z,5.70
2018-06-19T01:35:07.912Z,9.03
2018-06-19T01:37:36.373Z,8.00
2018-06-19T01:40:05.587Z,7.50
2018-06-19T01:42:34.064Z,6.67
2018-06-19T01:45:02.610Z,8.00
2018-06-19T01:47:31.052Z,8.53
2018-06-19T01:49:59.566Z,8.43
2018-06-19T01:52:28.068Z,8.60
2018-06-19T01:54:56.655Z,14.03
2018-06-19T01:57:25.153Z,8.50
2018-06-19T01:59:53.689Z,9.07
2018-06-19T02:02:22.201Z,8.90
2018-06-19T02:04:50.747Z,8.27
2018-06-19T02:07:19.243Z,10.37
2018-06-19T02:09:47.686Z,8.87
2018-06-19T02:12:16.233Z,7.27
2018-06-19T02:14:44.796Z,8.70
2018-06-19T02:17:13.389Z,7.33
2018-06-19T02:19:41.984Z,7.60
2018-06-19T02:22:10.480Z,6.17
2018-06-19T02:24:39.186Z,7.10
2018-06-19T02:27:07.751Z,8.83
2018-06-19T02:29:36.296Z,6.87
2018-06-19T02:32:04.881Z,6.13
2018-06-19T02:34:33.360Z,7.43
2018-06-19T02:37:01.875Z,6.43
2018-06-19T02:39:30.366Z,7.23
2018-06-19T02:41:58.844Z,6.33
2018-06-19T02:44:27.349Z,7.83
2018-06-19T02:46:55.809Z,5.10
2018-06-19T02:49:24.445Z,6.83
2018-06-19T02:51:52.888Z,6.40
2018-06-19T02:54:21.368Z,9.37
2018-06-19T02:56:49.853Z,7.33
2018-06-19T02:59:21.303Z,7.43
2018-06-19T03:01:49.838Z,7.30
2018-06-19T03:04:19.095Z,4.83
2018-06-19T03:06:47.630Z,6.40
2018-06-19T03:09:16.209Z,6.90
2018-06-19T03:11:44.760Z,6.70
2018-06-19T03:14:13.392Z,7.60
2018-06-19T03:16:41.926Z,8.57
2018-06-19T03:19:10.435Z,8.57
2018-06-19T03:21:39.022Z,6.80
2018-06-19T03:24:08.101Z,7.00
2018-06-19T03:26:36.545Z,8.53
2018-06-19T03:29:05.009Z,5.40
2018-06-19T03:31:34.191Z,7.20
2018-06-19T03:34:02.713Z,7.20
2018-06-19T03:36:31.225Z,7.03
2018-06-19T03:38:59.768Z,6.77
2018-06-19T03:41:28.281Z,7.50
2018-06-19T03:43:57.669Z,5.60
2018-06-19T03:46:26.180Z,7.07
2018-06-19T03:48:54.778Z,6.10
2018-06-19T03:51:24.099Z,10.17
2018-06-19T03:53:52.562Z,6.53
2018-06-19T03:56:21.066Z,9.60
2018-06-19T03:58:49.551Z,4.93
2018-06-19T04:01:18.106Z,8.20
2018-06-19T04:03:46.584Z,10.40
2018-06-19T04:06:15.048Z,8.83
2018-06-19T04:08:44.264Z,8.90
2018-06-19T04:11:12.735Z,7.17
2018-06-19T04:13:41.237Z,11.90
2018-06-19T04:16:09.781Z,7.77
2018-06-19T04:18:38.269Z,12.20
2018-06-19T04:21:06.734Z,10.37
2018-06-19T04:23:35.330Z,8.57
2018-06-19T04:26:03.885Z,6.87
2018-06-19T04:28:32.395Z,8.93
2018-06-19T04:31:00.864Z,10.53
2018-06-19T04:33:29.419Z,9.53
2018-06-19T04:35:58.377Z,9.80
2018-06-19T04:38:26.866Z,10.77
2018-06-19T04:40:55.318Z,9.67
2018-06-19T04:43:23.788Z,9.17
2018-06-19T04:45:52.307Z,8.80
2018-06-19T04:48:21.410Z,7.10
2018-06-19T04:50:49.861Z,9.10
2018-06-19T04:53:18.334Z,7.10
2018-06-19T04:55:46.805Z,8.83
2018-06-19T04:58:15.513Z,7.97
2018-06-19T05:00:44.007Z,8.13
2018-06-19T05:03:12.529Z,9.00
2018-06-19T05:05:41.019Z,6.57
2018-06-19T05:08:09.555Z,7.70
2018-06-19T05:10:38.068Z,9.97
2018-06-19T05:13:06.545Z,8.17
2018-06-19T05:15:35.044Z,10.53
2018-06-19T05:18:03.536Z,8.23
2018-06-19T05:20:31.987Z,11.50
2018-06-19T05:23:00.517Z,10.33
2018-06-19T05:25:29.018Z,12.97
2018-06-19T05:27:57.482Z,10.20
2018-06-19T05:30:26.076Z,10.00
2018-06-19T05:32:55.169Z,9.87
2018-06-19T05:35:23.697Z,10.00
2018-06-19T05:37:52.182Z,8.57
2018-06-19T05:40:20.732Z,8.33
2018-06-19T05:42:49.568Z,11.10
2018-06-19T05:45:18.117Z,8.57
2018-06-19T05:47:47.368Z,10.37
2018-06-19T05:50:15.992Z,10.17
2018-06-19T05:52:44.531Z,11.13
2018-06-19T05:55:13.095Z,9.43
2018-06-19T05:57:41.565Z,7.47
2018-06-19T06:00:10.553Z,11.60
2018-06-19T06:02:38.986Z,11.47
2018-06-19T06:05:07.508Z,13.37
2018-06-19T06:07:36.014Z,9.87
2018-06-19T06:10:04.574Z,7.47
2018-06-19T06:12:33.278Z,11.00
2018-06-19T06:15:01.820Z,9.53
2018-06-19T06:17:30.290Z,11.97
2018-06-19T06:19:58.738Z,10.10
2018-06-19T06:22:27.367Z,15.93
2018-06-19T06:24:55.856Z,13.00
2018-06-19T06:27:24.374Z,11.67
2018-06-19T06:29:52.836Z,16.80
2018-06-19T06:32:21.335Z,14.67
2018-06-19T06:34:49.883Z,12.97
2018-06-19T06:37:18.440Z,14.67
2018-06-19T06:39:46.978Z,11.87
2018-06-19T06:42:15.455Z,9.83
2018-06-19T06:44:44.113Z,9.93
2018-06-19T06:47:12.588Z,13.00
2018-06-19T06:49:41.182Z,12.40
2018-06-19T06:52:09.675Z,12.60
2018-06-19T06:54:39.019Z,12.67
2018-06-19T06:57:07.514Z,14.43
2018-06-19T06:59:37.665Z,17.57
2018-06-19T07:02:06.179Z,13.47
2018-06-19T07:04:34.706Z,17.23
2018-06-19T07:07:03.173Z,14.77
2018-06-19T07:09:31.663Z,16.03
2018-06-19T07:12:00.231Z,12.13
2018-06-19T07:14:28.769Z,17.47
2018-06-19T07:16:57.292Z,17.00
2018-06-19T07:19:25.833Z,17.53
2018-06-19T07:21:54.407Z,13.77
2018-06-19T07:24:22.935Z,15.83
2018-06-19T07:26:51.481Z,15.63
2018-06-19T07:29:20.032Z,16.37
2018-06-19T07:31:48.653Z,17.93
2018-06-19T07:34:17.248Z,17.93
2018-06-19T07:36:45.970Z,21.10
2018-06-19T07:39:15.303Z,16.53
2018-06-19T07:41:43.936Z,18.17
2018-06-19T07:44:12.508Z,18.27
2018-06-19T07:46:41.048Z,14.00
2018-06-19T07:49:09.558Z,18.03
2018-06-19T07:51:38.083Z,19.77
2018-06-19T07:54:07.388Z,16.20
2018-06-19T07:56:35.882Z,17.20
2018-06-19T07:59:04.591Z,19.27
2018-06-19T08:01:33.086Z,20.83
2018-06-19T08:04:01.607Z,19.07
2018-06-19T08:06:30.200Z,21.87
2018-06-19T08:08:58.752Z,17.87
2018-06-19T08:11:27.867Z,19.77
2018-06-19T08:13:56.402Z,20.60
2018-06-19T08:16:24.974Z,21.40
2018-06-19T08:18:53.781Z,19.67
2018-06-19T08:21:22.446Z,21.03
2018-06-19T08:23:51.688Z,23.67
2018-06-19T08:26:20.252Z,23.87
2018-06-19T08:28:49.975Z,22.77
2018-06-19T08:31:18.811Z,23.97
2018-06-19T08:33:51.085Z,22.53
2018-06-19T08:36:19.951Z,21.93
2018-06-19T08:38:48.636Z,21.90
2018-06-19T08:41:19.218Z,28.13
2018-06-19T08:43:48.105Z,24.77
2018-06-19T08:46:16.939Z,28.80
2018-06-19T08:48:46.285Z,24.80
2018-06-19T08:51:15.461Z,24.10
2018-06-19T08:53:44.337Z,23.73
2018-06-19T08:56:13.229Z,23.80
2018-06-19T08:58:41.962Z,24.17
2018-06-19T09:01:10.737Z,26.03
2018-06-19T09:03:39.569Z,22.70
2018-06-19T09:06:08.352Z,26.73
2018-06-19T09:08:37.140Z,26.63
2018-06-19T09:11:06.155Z,23.37
2018-06-19T09:13:34.985Z,24.00
2018-06-19T09:16:03.865Z,24.93
2018-06-19T09:18:32.605Z,25.20
2018-06-19T09:21:01.383Z,24.63
2018-06-19T09:23:29.981Z,24.00
2018-06-19T09:25:58.626Z,28.83
2018-06-19T09:28:27.745Z,23.87
2018-06-19T09:30:56.300Z,25.80
2018-06-19T09:33:24.798Z,24.20
2018-06-19T09:35:53.304Z,24.23
2018-06-19T09:38:21.787Z,27.87
2018-06-19T09:40:50.345Z,25.53
2018-06-19T09:43:18.860Z,27.30
2018-06-19T09:45:47.511Z,28.23
2018-06-19T09:48:16.032Z,24.57
2018-06-19T09:50:44.681Z,25.93
2018-06-19T09:53:13.205Z,25.57
2018-06-19T09:55:41.781Z,28.53
2018-06-19T09:58:10.392Z,26.43
2018-06-19T10:00:41.770Z,30.00
2018-06-19T10:03:10.892Z,28.03
2018-06-19T10:05:39.400Z,29.87
2018-06-19T10:08:07.855Z,29.23
2018-06-19T10:10:36.680Z,27.23
2018-06-19T10:13:05.317Z,32.37
2018-06-19T10:15:33.846Z,29.70
2018-06-19T10:18:02.336Z,28.90
2018-06-19T10:20:30.872Z,25.63
2018-06-19T10:22:59.910Z,26.63
2018-06-19T10:25:28.398Z,25.17
2018-06-19T10:27:56.965Z,26.57
2018-06-19T10:30:25.472Z,26.17
2018-06-19T10:32:54.000Z,26.50
2018-06-19T10:35:22.502Z,29.93
2018-06-19T10:37:51.781Z,28.73
2018-06-19T10:40:20.345Z,28.30
2018-06-19T10:42:48.795Z,27.13
2018-06-19T10:45:17.395Z,25.77
2018-06-19T10:47:46.535Z,27.93
2018-06-19T10:50:15.164Z,23.30
2018-06-19T10:52:44.210Z,26.03
2018-06-19T10:55:12.739Z,30.67
2018-06-19T10:57:41.211Z,27.87
2018-06-19T11:00:10.434Z,23.27
2018-06-19T11:02:38.953Z,32.67
2018-06-19T11:05:07.505Z,28.40
2018-06-19T11:07:36.089Z,25.73
2018-06-19T11:10:04.829Z,28.40
2018-06-19T11:12:34.349Z,25.27
2018-06-19T11:15:03.022Z,26.33
2018-06-19T11:17:31.536Z,26.70
2018-06-19T11:20:00.128Z,29.27
2018-06-19T11:22:28.822Z,26.50
2018-06-19T11:24:57.337Z,25.50
2018-06-19T11:27:25.901Z,28.17
2018-06-19T11:29:54.505Z,25.60
2018-06-19T11:32:23.054Z,22.73
2018-06-19T11:34:51.601Z,27.50
2018-06-19T11:37:20.149Z,26.30
2018-06-19T11:39:48.638Z,22.10
2018-06-19T11:42:17.135Z,25.57
2018-06-19T11:44:45.771Z,21.47
2018-06-19T11:47:14.283Z,22.67
2018-06-19T11:49:43.588Z,23.60
2018-06-19T11:52:12.168Z,22.97
2018-06-19T11:54:40.763Z,20.77
2018-06-19T11:57:09.299Z,24.20
2018-06-19T11:59:37.947Z,23.33
2018-06-19T12:02:06.514Z,21.97
2018-06-19T12:04:35.057Z,22.13
2018-06-19T12:07:04.278Z,23.43
2018-06-19T12:09:32.758Z,20.03
2018-06-19T12:12:01.364Z,20.40
2018-06-19T12:14:29.917Z,22.50
2018-06-19T12:16:58.416Z,23.27
2018-06-19T12:19:27.016Z,22.30
2018-06-19T12:21:55.588Z,22.07
2018-06-19T12:24:24.210Z,23.23
2018-06-19T12:26:52.733Z,23.80
2018-06-19T12:29:21.287Z,19.77
2018-06-19T12:31:49.795Z,20.97
2018-06-19T12:34:18.420Z,22.90
2018-06-19T12:36:46.934Z,19.00
2018-06-19T12:39:15.432Z,19.97
2018-06-19T12:41:47.934Z,21.97
2018-06-19T12:44:16.474Z,19.10
2018-06-19T12:46:46.171Z,20.23
2018-06-19T12:49:14.952Z,16.93
2018-06-19T12:51:57.420Z,16.40
2018-06-19T12:55:21.452Z,19.53
2018-06-19T12:57:50.262Z,18.60
2018-06-19T13:00:18.784Z,20.13
2018-06-19T13:02:59.118Z,23.53
2018-06-19T13:05:38.773Z,19.50
2018-06-19T13:08:07.310Z,18.70
2018-06-19T13:10:35.990Z,20.43
2018-06-19T13:13:25.878Z,18.20
2018-06-19T13:15:55.012Z,17.63
2018-06-19T13:18:35.980Z,18.27
2018-06-19T13:21:04.576Z,18.40
2018-06-19T13:23:33.355Z,17.53
2018-06-19T13:26:02.039Z,18.00
2018-06-19T13:28:41.918Z,17.97
2018-06-19T13:31:22.256Z,22.17
2018-06-19T13:33:50.790Z,17.80
2018-06-19T13:36:19.550Z,19.60
2018-06-19T13:38:48.713Z,20.17
2018-06-19T13:41:29.618Z,16.63
2018-06-19T13:44:13.032Z,17.33
2018-06-19T13:46:42.183Z,17.43
2018-06-19T13:49:19.914Z,19.13
2018-06-19T13:51:54.218Z,16.23
2018-06-19T13:54:33.289Z,19.77
2018-06-19T13:57:35.024Z,18.67
2018-06-19T14:00:16.335Z,15.93
2018-06-19T14:02:47.613Z,18.97
2018-06-19T14:05:18.702Z,17.13
2018-06-19T14:08:13.440Z,19.67
2018-06-19T14:10:53.546Z,22.03
2018-06-19T14:13:22.939Z,18.20
2018-06-19T14:15:51.573Z,19.20
2018-06-19T14:18:21.959Z,21.03
2018-06-19T14:20:50.594Z,18.50
2018-06-19T14:23:19.165Z,18.20
2018-06-19T14:25:48.610Z,19.37
2018-06-19T14:28:18.244Z,18.33
2018-06-19T14:30:47.979Z,15.20
2018-06-19T14:33:16.850Z,16.70
2018-06-19T14:35:45.624Z,18.47
2018-06-19T14:38:15.158Z,18.90
2018-06-19T14:40:43.713Z,16.27
2018-06-19T14:43:12.261Z,17.80
2018-06-19T14:45:41.926Z,15.93
2018-06-19T14:48:11.654Z,15.33
2018-06-19T14:50:40.197Z,15.60
2018-06-19T14:53:09.208Z,16.10
2018-06-19T14:55:38.700Z,18.80
2018-06-19T14:58:07.252Z,17.50
2018-06-19T15:00:36.633Z,19.10
2018-06-19T15:03:05.517Z,16.93
2018-06-19T15:05:34.344Z,16.67
2018-06-19T15:08:02.873Z,16.70
2018-06-19T15:10:31.446Z,16.30
2018-06-19T15:13:00.609Z,16.07
2018-06-19T15:15:29.430Z,16.20
2018-06-19T15:17:58.351Z,17.33
2018-06-19T15:20:27.256Z,19.63
2018-06-19T15:22:55.823Z,20.23
2018-06-19T15:25:25.061Z,18.57
2018-06-19T15:27:53.971Z,17.20
2018-06-19T15:30:22.797Z,16.60
2018-06-19T15:32:52.599Z,17.47
2018-06-19T15:35:22.044Z,17.63
2018-06-19T15:37:51.048Z,16.17
2018-06-19T15:40:23.966Z,15.13
2018-06-19T15:42:52.543Z,15.27
2018-06-19T15:45:21.076Z,15.00
2018-06-19T15:47:49.631Z,15.57
2018-06-19T15:50:18.353Z,14.67
2018-06-19T15:52:47.200Z,13.10
2018-06-19T15:55:15.746Z,13.70
2018-06-19T15:57:44.558Z,13.10
2018-06-19T16:00:13.102Z,15.17
2018-06-19T16:02:42.504Z,15.33
2018-06-19T16:05:11.096Z,17.63
2018-06-19T16:08:42.962Z,16.83
2018-06-19T16:11:11.916Z,16.33
2018-06-19T16:13:40.729Z,17.10
2018-06-19T16:16:09.328Z,17.13
2018-06-19T16:18:37.947Z,17.00
2018-06-19T16:21:07.082Z,17.63
2018-06-19T16:23:35.626Z,19.67
2018-06-19T16:26:04.209Z,20.27
2018-06-19T16:28:33.005Z,17.27
2018-06-19T16:31:01.833Z,23.30
2018-06-19T16:33:30.367Z,20.07
2018-06-19T16:35:58.919Z,22.50
2018-06-19T16:38:27.464Z,22.40
2018-06-19T16:40:55.977Z,22.40
2018-06-19T16:43:25.200Z,22.87
2018-06-19T16:45:54.443Z,21.50
2018-06-19T16:48:23.154Z,21.53
2018-06-19T16:50:52.045Z,22.10
2018-06-19T16:53:20.745Z,21.73
2018-06-19T16:55:49.281Z,21.67
2018-06-19T16:58:17.800Z,21.37
2018-06-19T17:00:46.463Z,20.80
2018-06-19T17:03:15.193Z,21.97
2018-06-19T17:05:43.890Z,20.47
2018-06-19T17:08:12.427Z,22.00
2018-06-19T17:10:40.952Z,20.60
2018-06-19T17:13:09.553Z,19.87
2018-06-19T17:15:38.065Z,20.03
2018-06-19T17:18:06.630Z,23.33
2018-06-19T17:20:35.424Z,22.40
2018-06-19T17:23:03.968Z,19.10
2018-06-19T17:25:32.527Z,18.70
2018-06-19T17:28:01.132Z,18.27
2018-06-19T17:30:29.734Z,19.43
2018-06-19T17:32:58.262Z,20.20
2018-06-19T17:35:27.128Z,21.47
2018-06-19T17:37:55.708Z,24.07
2018-06-19T17:40:24.765Z,22.20
2018-06-19T17:42:53.440Z,22.00
2018-06-19T17:45:22.230Z,23.87
2018-06-19T17:47:50.815Z,19.53
2018-06-19T17:50:20.090Z,19.47
2018-06-19T17:52:48.622Z,25.30
2018-06-19T17:55:17.609Z,20.90
2018-06-19T17:57:46.152Z,23.10
2018-06-19T18:00:14.791Z,23.07
2018-06-19T18:02:43.354Z,19.73
2018-06-19T18:05:11.948Z,19.53
2018-06-19T18:07:40.522Z,20.20
2018-06-19T18:10:09.406Z,21.43
2018-06-19T18:12:37.952Z,19.53
2018-06-19T18:15:06.163Z,22.33
2018-06-19T18:17:34.750Z,21.37
2018-06-19T18:20:03.354Z,21.33
2018-06-19T18:22:31.899Z,27.10
2018-06-19T18:25:00.617Z,19.83
2018-06-19T18:27:29.241Z,21.93
2018-06-19T18:29:57.771Z,22.83
2018-06-19T18:32:26.951Z,23.90
2018-06-19T18:34:55.657Z,22.83
2018-06-19T18:37:24.235Z,25.30
2018-06-19T18:39:52.832Z,25.17
2018-06-19T18:42:21.377Z,19.90
2018-06-19T18:44:49.973Z,24.27
2018-06-19T18:47:18.594Z,23.17
2018-06-19T18:49:47.176Z,21.23
2018-06-19T18:52:16.025Z,18.93
2018-06-19T18:54:44.624Z,21.20
2018-06-19T18:57:13.214Z,22.17
2018-06-19T18:59:41.742Z,19.73
2018-06-19T19:02:10.395Z,23.17
2018-06-19T19:04:39.310Z,18.10
2018-06-19T19:07:07.888Z,18.57
2018-06-19T19:09:36.510Z,17.53
2018-06-19T19:12:05.047Z,20.27
2018-06-19T19:14:38.821Z,18.83
2018-06-19T19:17:13.024Z,17.20
2018-06-19T19:19:41.703Z,16.07
2018-06-19T19:22:10.332Z,17.17
2018-06-19T19:24:38.941Z,18.67
2018-06-19T19:27:12.628Z,17.57
2018-06-19T19:29:46.354Z,15.80
2018-06-19T19:32:14.939Z,17.60
2018-06-19T19:34:44.023Z,19.27
2018-06-19T19:37:18.003Z,22.53
2018-06-19T19:39:47.153Z,16.53
2018-06-19T19:42:15.728Z,18.63
2018-06-19T19:44:44.268Z,17.53
2018-06-19T19:47:18.979Z,15.97
2018-06-19T19:49:47.495Z,15.83
2018-06-19T19:52:16.066Z,17.03
2018-06-19T19:54:44.623Z,16.40
2018-06-19T19:57:18.379Z,16.63
2018-06-19T19:59:46.978Z,16.33
2018-06-19T20:02:15.493Z,17.43
2018-06-19T20:04:44.174Z,18.07
2018-06-19T20:07:12.792Z,17.93
2018-06-19T20:09:41.380Z,15.20
2018-06-19T20:12:10.755Z,17.33
2018-06-19T20:14:39.294Z,15.23
2018-06-19T20:17:07.891Z,14.30
2018-06-19T20:19:36.451Z,18.30
2018-06-19T20:22:05.085Z,16.63
2018-06-19T20:24:33.608Z,15.83
2018-06-19T20:27:02.542Z,16.67
2018-06-19T20:29:31.102Z,15.30
2018-06-19T20:31:59.643Z,18.57
2018-06-19T20:34:28.214Z,17.60
2018-06-19T20:36:56.762Z,15.27
2018-06-19T20:39:25.318Z,17.80
2018-06-19T20:41:53.869Z,13.33
2018-06-19T20:44:22.435Z,15.37
2018-06-19T20:46:50.988Z,13.40
2018-06-19T20:49:19.550Z,16.13
2018-06-19T20:51:48.054Z,17.37
2018-06-19T20:54:16.680Z,13.90
2018-06-19T20:56:45.185Z,15.93
2018-06-19T20:59:13.777Z,16.97
2018-06-19T21:01:42.306Z,17.30
2018-06-19T21:04:10.908Z,14.10
2018-06-19T21:06:40.076Z,16.53
2018-06-19T21:09:08.840Z,15.83
2018-06-19T21:11:37.951Z,15.80
2018-06-19T21:14:06.448Z,17.67
2018-06-19T21:16:35.145Z,17.80
2018-06-19T21:19:05.517Z,15.73
2018-06-19T21:21:34.074Z,16.73
2018-06-19T21:24:02.622Z,15.60
2018-06-19T21:26:31.204Z,16.50
2018-06-19T21:28:59.792Z,13.93
2018-06-19T21:31:28.397Z,16.13
2018-06-19T21:33:57.103Z,15.23
2018-06-19T21:36:26.283Z,15.83
2018-06-19T21:38:55.141Z,17.60
2018-06-19T21:41:27.021Z,15.97
2018-06-19T21:43:56.062Z,15.63
2018-06-19T21:46:24.631Z,15.60
2018-06-19T21:48:53.235Z,19.70
2018-06-19T21:51:21.784Z,18.10
2018-06-19T21:53:50.371Z,14.70
2018-06-19T21:56:18.923Z,17.03
2018-06-19T21:58:47.513Z,20.40
2018-06-19T22:01:16.046Z,19.07
2018-06-19T22:03:44.809Z,17.33
2018-06-19T22:06:13.359Z,19.63
2018-06-19T22:08:43.935Z,16.90
2018-06-19T22:11:13.236Z,16.97
2018-06-19T22:13:41.841Z,18.30
2018-06-19T22:16:10.321Z,15.77
2018-06-19T22:18:38.871Z,16.17
2018-06-19T22:21:07.471Z,17.63
2018-06-19T22:23:36.040Z,18.17
2018-06-19T22:26:04.768Z,18.03
2018-06-19T22:28:33.524Z,20.10
2018-06-19T22:31:02.074Z,18.30
2018-06-19T22:33:30.618Z,18.83
2018-06-19T22:35:59.129Z,17.23
2018-06-19T22:38:28.051Z,18.93
2018-06-19T22:40:56.549Z,14.63
2018-06-19T22:43:25.026Z,17.60
2018-06-19T22:45:53.562Z,18.33
2018-06-19T22:48:22.290Z,18.17
2018-06-19T22:50:50.875Z,17.33
2018-06-19T22:53:19.462Z,19.20
2018-06-19T22:55:48.027Z,19.23
2018-06-19T22:58:16.525Z,18.90
2018-06-19T23:00:45.047Z,17.10
2018-06-19T23:03:13.661Z,16.17
2018-06-19T23:05:42.150Z,21.73
2018-06-19T23:08:10.748Z,18.90
2018-06-19T23:10:39.262Z,18.50
2018-06-19T23:13:07.749Z,18.70
2018-06-19T23:15:36.254Z,19.33
2018-06-19T23:18:05.017Z,18.90
2018-06-19T23:20:33.886Z,23.40
2018-06-19T23:23:02.528Z,19.27
2018-06-19T23:25:31.038Z,19.77
2018-06-19T23:27:59.575Z,19.87
2018-06-19T23:30:28.326Z,19.27
2018-06-19T23:32:56.859Z,21.03
2018-06-19T23:35:25.418Z,20.80
2018-06-19T23:37:53.942Z,21.50
2018-06-19T23:40:22.472Z,20.43
2018-06-19T23:42:53.117Z,22.50
2018-06-19T23:45:21.696Z,16.57
2018-06-19T23:47:50.939Z,14.70
2018-06-19T23:50:19.518Z,17.03
2018-06-19T23:52:49.054Z,18.23
2018-06-19T23:55:17.768Z,19.70
2018-06-19T23:57:46.829Z,19.40
